Terminal Aerodrome Forecast
Issued by NWS

Home | Current Version | Previous Version | Text Only | Print | Product List | Glossary On
Versions: 1 2 3 4 5 6 7 8 9 10 11 12 13 14 15 16 17 18 19 20
000
FTUS43 KGRB 202333
TAFMTW
TAF
KMTW 202333Z 2100/2124 16010G15KT P6SM BKN150
     FM210100 18007KT P6SM SCT045
     FM210300 20005KT P6SM SCT050 BKN150
      TEMPO 2109/2113 4SM BR
     FM211500 21005KT P6SM SCT040 BKN090=

USA.gov is the U.S. government's official web portal to all federal, state and local government web resources and services.